Time;durP1;ratioP1;P1;durP2;ratioP2;P2;SDS_P1;SDS_P2;PMS_P1;PMS_P2;Temp;Humidity;BMP_temperature;BMP_pressure;BME280_temperature;BME280_humidity;BME280_pressure;Samples;Min_cycle;Max_cycle;Signal;HPM_P1;HPM_P2
2023/12/23 00:01:30;;;;;;;3.83;0.80;;;6.40;99.90;;;;;;5024561;28;20518;-56
2023/12/23 00:03:58;;;;;;;6.75;0.55;;;6.30;99.90;;;;;;5024315;28;20041;-58
2023/12/23 00:06:24;;;;;;;8.13;0.82;;;6.40;99.90;;;;;;5024504;28;20038;-56
2023/12/23 00:08:49;;;;;;;8.93;0.55;;;6.40;99.90;;;;;;5021981;28;20034;-53
2023/12/23 00:11:15;;;;;;;13.00;1.20;;;6.40;99.90;;;;;;5018276;28;20505;-55
2023/12/23 00:13:41;;;;;;;3.63;0.70;;;6.40;99.90;;;;;;5022388;28;20030;-50
2023/12/23 00:16:06;;;;;;;5.40;1.25;;;6.40;99.90;;;;;;5023422;28;20105;-56
2023/12/23 00:18:32;;;;;;;5.45;1.20;;;6.40;99.90;;;;;;5024980;28;20546;-50
2023/12/23 00:20:57;;;;;;;6.30;1.40;;;6.40;99.90;;;;;;5029503;28;20021;-54
2023/12/23 00:23:23;;;;;;;3.42;0.50;;;6.40;99.90;;;;;;5023493;28;20038;-51
2023/12/23 00:25:49;;;;;;;2.35;0.52;;;6.40;99.90;;;;;;5028050;28;20033;-53
2023/12/23 00:28:14;;;;;;;6.47;0.80;;;6.40;99.90;;;;;;5024538;28;20657;-54
2023/12/23 00:30:40;;;;;;;2.20;0.40;;;6.40;99.90;;;;;;5025718;28;20027;-49
2023/12/23 00:33:05;;;;;;;7.32;1.10;;;6.40;99.90;;;;;;5021476;28;20045;-53
2023/12/23 00:35:31;;;;;;;7.93;0.73;;;6.40;99.90;;;;;;5024650;28;20035;-53
2023/12/23 00:37:56;;;;;;;6.18;1.67;;;6.40;99.90;;;;;;5020946;28;20751;-53
2023/12/23 00:40:22;;;;;;;6.18;1.00;;;6.40;99.90;;;;;;5023989;28;20193;-56
2023/12/23 00:42:48;;;;;;;4.07;0.65;;;6.40;99.90;;;;;;5024343;28;20488;-55
2023/12/23 00:45:13;;;;;;;6.00;0.80;;;6.40;99.90;;;;;;5021948;28;20033;-50
2023/12/23 00:47:39;;;;;;;7.25;0.80;;;6.40;99.90;;;;;;5019211;28;20052;-55
2023/12/23 00:50:06;;;;;;;5.22;1.17;;;6.40;99.90;;;;;;5022104;28;20028;-51
2023/12/23 00:52:31;;;;;;;3.97;0.80;;;6.40;99.90;;;;;;5025081;28;20490;-53
2023/12/23 00:54:57;;;;;;;3.20;0.90;;;6.40;99.90;;;;;;5020516;28;20030;-52
2023/12/23 00:57:23;;;;;;;3.40;0.45;;;6.40;99.90;;;;;;5016918;28;20018;-53
2023/12/23 00:59:48;;;;;;;5.82;1.13;;;6.40;99.90;;;;;;5018983;28;20034;-53
2023/12/23 01:02:14;;;;;;;9.85;1.27;;;6.50;99.90;;;;;;5021385;28;20030;-50
2023/12/23 01:04:40;;;;;;;8.98;0.88;;;6.50;99.90;;;;;;5020007;28;20082;-50
2023/12/23 01:07:06;;;;;;;12.05;1.15;;;6.50;99.90;;;;;;5021237;28;20519;-49
2023/12/23 01:09:32;;;;;;;4.97;0.98;;;6.50;99.90;;;;;;5021866;28;20124;-53
2023/12/23 01:11:57;;;;;;;6.45;0.80;;;6.50;99.90;;;;;;5025444;28;20037;-51
2023/12/23 01:14:23;;;;;;;8.70;0.90;;;6.50;99.90;;;;;;5020784;28;20041;-50
2023/12/23 01:16:49;;;;;;;5.68;0.95;;;6.50;99.90;;;;;;5021286;28;20036;-54
2023/12/23 01:19:14;;;;;;;2.75;0.82;;;6.40;99.90;;;;;;5021888;28;20412;-49
2023/12/23 01:21:40;;;;;;;8.98;0.65;;;6.50;99.90;;;;;;5020560;28;20026;-48
2023/12/23 01:24:05;;;;;;;2.72;0.70;;;6.40;99.90;;;;;;5021554;28;20037;-50
2023/12/23 01:26:31;;;;;;;11.10;1.45;;;6.40;99.90;;;;;;5026540;28;20043;-50
2023/12/23 01:29:00;;;;;;;5.65;0.75;;;6.40;99.90;;;;;;5023947;28;20026;-51
2023/12/23 01:31:26;;;;;;;6.25;1.27;;;6.50;99.90;;;;;;5021928;28;20032;-51
2023/12/23 01:33:52;;;;;;;2.85;0.80;;;6.50;99.90;;;;;;5022513;28;20411;-53
2023/12/23 01:36:18;;;;;;;11.80;1.17;;;6.50;99.90;;;;;;5020278;28;20022;-52
2023/12/23 01:38:43;;;;;;;3.03;0.70;;;6.50;99.90;;;;;;5026066;28;20113;-52
2023/12/23 01:41:09;;;;;;;4.85;0.60;;;6.50;99.90;;;;;;5026392;28;20042;-49
2023/12/23 01:43:35;;;;;;;5.22;0.95;;;6.50;99.90;;;;;;5014116;28;20895;-52
2023/12/23 01:46:01;;;;;;;4.07;0.85;;;6.50;99.90;;;;;;5018141;28;20385;-51
2023/12/23 01:48:31;;;;;;;5.22;0.88;;;6.50;99.90;;;;;;5024302;28;20048;-50
2023/12/23 01:50:57;;;;;;;7.85;1.13;;;6.50;99.90;;;;;;5021440;28;20032;-50
2023/12/23 01:53:24;;;;;;;7.70;0.63;;;6.50;99.90;;;;;;5017172;28;20077;-48
2023/12/23 01:55:50;;;;;;;5.53;0.75;;;6.50;99.90;;;;;;5028022;28;20045;-55
2023/12/23 01:58:16;;;;;;;7.05;0.98;;;6.50;99.90;;;;;;5021309;28;20408;-52
2023/12/23 02:00:41;;;;;;;0.98;0.80;;;6.50;99.90;;;;;;5010692;28;20033;-51
2023/12/23 02:03:08;;;;;;;5.40;0.80;;;6.50;99.90;;;;;;5017770;28;20048;-52
2023/12/23 02:05:33;;;;;;;3.08;0.60;;;6.50;99.90;;;;;;5016291;28;20037;-57
2023/12/23 02:07:59;;;;;;;16.45;3.22;;;6.50;99.90;;;;;;5015696;28;20116;-53
2023/12/23 02:10:25;;;;;;;5.13;1.05;;;6.50;99.90;;;;;;5017105;28;20022;-54
2023/12/23 02:13:09;;;;;;;6.00;1.00;;;6.50;99.90;;;;;;5017563;28;20026;-51
2023/12/23 02:15:37;;;;;;;6.78;1.05;;;6.50;99.90;;;;;;5021498;28;20037;-52
2023/12/23 02:18:03;;;;;;;9.85;1.35;;;6.50;99.90;;;;;;5018021;28;20029;-54
2023/12/23 02:20:29;;;;;;;7.70;0.88;;;6.50;99.90;;;;;;5023745;28;20025;-49
2023/12/23 02:22:55;;;;;;;7.18;0.95;;;6.50;99.90;;;;;;5018977;28;20492;-51
2023/12/23 02:25:21;;;;;;;4.95;0.50;;;6.50;99.90;;;;;;5023466;28;20045;-54
2023/12/23 02:27:52;;;;;;;7.45;1.13;;;6.50;99.90;;;;;;5019996;28;20057;-50
2023/12/23 02:30:19;;;;;;;7.80;0.98;;;6.50;99.90;;;;;;5027037;28;20636;-53
2023/12/23 02:32:44;;;;;;;4.40;0.77;;;6.50;99.90;;;;;;5017739;28;20420;-54
2023/12/23 02:35:12;;;;;;;6.53;0.90;;;6.50;99.90;;;;;;5015978;28;20038;-56
2023/12/23 02:37:37;;;;;;;5.50;0.70;;;6.50;99.90;;;;;;5024234;28;20042;-50
2023/12/23 02:40:04;;;;;;;6.00;0.95;;;6.50;99.90;;;;;;5019506;28;20480;-52
2023/12/23 02:42:29;;;;;;;3.05;1.00;;;6.50;99.90;;;;;;5023387;28;20037;-51
2023/12/23 02:44:55;;;;;;;6.07;2.20;;;6.50;99.90;;;;;;5026316;28;20044;-60
2023/12/23 02:47:20;;;;;;;3.70;0.63;;;6.50;99.90;;;;;;5023584;28;20061;-56
2023/12/23 02:49:46;;;;;;;7.07;0.80;;;6.50;99.90;;;;;;5028507;28;20377;-49
2023/12/23 02:52:12;;;;;;;7.63;1.05;;;6.50;99.90;;;;;;5018498;28;20041;-55
2023/12/23 02:54:37;;;;;;;1.33;0.60;;;6.50;99.90;;;;;;5025150;28;20117;-54
2023/12/23 02:57:03;;;;;;;7.80;0.80;;;6.50;99.90;;;;;;5028480;28;20033;-49
2023/12/23 02:59:28;;;;;;;5.93;0.90;;;6.50;99.90;;;;;;5026987;28;20030;-50
2023/12/23 03:01:54;;;;;;;6.20;1.00;;;6.50;99.90;;;;;;5031638;28;20056;-53
2023/12/23 03:04:20;;;;;;;7.47;1.83;;;6.50;99.90;;;;;;5024369;28;20025;-52
2023/12/23 03:06:45;;;;;;;4.00;2.20;;;6.60;99.90;;;;;;5025088;28;20033;-52
2023/12/23 03:09:11;;;;;;;7.57;2.10;;;6.60;99.90;;;;;;5021437;28;20026;-55
2023/12/23 03:11:37;;;;;;;8.38;1.90;;;6.60;99.90;;;;;;5031331;28;20498;-53
2023/12/23 03:14:03;;;;;;;14.27;1.60;;;6.60;99.90;;;;;;5020423;28;20120;-49
2023/12/23 03:16:33;;;;;;;7.60;2.47;;;6.60;99.90;;;;;;5024826;28;20080;-50
2023/12/23 03:19:00;;;;;;;5.20;1.63;;;6.60;99.90;;;;;;5027662;28;20038;-50
2023/12/23 03:21:26;;;;;;;10.95;3.08;;;6.60;99.90;;;;;;5026665;28;20467;-49
2023/12/23 03:23:52;;;;;;;5.72;2.85;;;6.60;99.90;;;;;;5026944;28;20029;-49
2023/12/23 03:26:17;;;;;;;9.38;2.35;;;6.70;99.90;;;;;;5023710;28;20080;-49
2023/12/23 03:28:43;;;;;;;7.57;2.58;;;6.80;99.90;;;;;;5029652;28;20034;-49
2023/12/23 03:31:09;;;;;;;8.18;3.20;;;6.70;99.90;;;;;;5033385;28;20439;-51
2023/12/23 03:33:35;;;;;;;16.38;4.10;;;6.70;99.90;;;;;;5023184;28;20030;-54
2023/12/23 03:36:00;;;;;;;6.85;3.42;;;6.70;99.90;;;;;;5023517;28;20033;-49
2023/12/23 03:38:26;;;;;;;13.80;4.07;;;6.70;99.90;;;;;;5028306;28;20061;-49
2023/12/23 03:40:52;;;;;;;8.88;4.30;;;6.80;99.90;;;;;;5018821;28;20084;-48
2023/12/23 03:43:17;;;;;;;12.25;3.83;;;6.80;99.90;;;;;;5024610;28;20045;-53
2023/12/23 03:45:43;;;;;;;12.90;4.60;;;6.90;99.90;;;;;;5029531;28;20407;-48
2023/12/23 03:48:09;;;;;;;6.15;3.35;;;7.00;99.90;;;;;;5022485;28;20030;-53
2023/12/23 03:50:34;;;;;;;9.13;5.18;;;7.10;99.90;;;;;;5019674;28;20140;-49
2023/12/23 03:53:00;;;;;;;17.98;5.43;;;7.20;99.90;;;;;;5018768;28;20410;-49
2023/12/23 03:55:31;;;;;;;14.63;5.95;;;7.30;99.90;;;;;;5018910;28;20033;-48
2023/12/23 03:57:57;;;;;;;22.17;5.95;;;7.40;99.90;;;;;;5028257;28;20068;-51
2023/12/23 04:00:22;;;;;;;16.35;6.78;;;7.40;99.90;;;;;;5028881;28;20057;-50
2023/12/23 04:02:48;;;;;;;14.30;6.10;;;7.50;99.90;;;;;;5029562;28;20563;-53
2023/12/23 04:05:15;;;;;;;10.32;5.75;;;7.60;99.90;;;;;;5026514;28;20099;-53
2023/12/23 04:07:41;;;;;;;13.07;5.35;;;7.60;99.90;;;;;;5022950;28;20030;-51
2023/12/23 04:10:07;;;;;;;25.02;6.88;;;7.60;99.90;;;;;;5017232;28;20030;-52
2023/12/23 04:12:32;;;;;;;16.20;6.35;;;7.60;99.90;;;;;;5020063;28;20531;-55
2023/12/23 04:14:58;;;;;;;16.85;6.03;;;7.60;99.90;;;;;;5028381;28;20101;-52
2023/12/23 04:17:23;;;;;;;10.70;5.63;;;7.60;99.90;;;;;;5028191;28;20028;-49
2023/12/23 04:19:50;;;;;;;11.05;5.88;;;7.60;99.90;;;;;;5021338;28;20037;-51
2023/12/23 04:22:16;;;;;;;16.80;5.20;;;7.60;99.90;;;;;;5031963;28;20495;-52
2023/12/23 04:24:42;;;;;;;9.55;5.68;;;7.70;99.90;;;;;;5029740;28;20116;-50
2023/12/23 04:27:08;;;;;;;17.88;6.75;;;7.70;99.90;;;;;;5027629;28;20026;-50
2023/12/23 04:29:33;;;;;;;17.00;6.25;;;7.70;99.90;;;;;;5026942;28;20045;-55
2023/12/23 04:31:59;;;;;;;12.93;5.10;;;7.70;99.90;;;;;;5020832;28;20036;-55
2023/12/23 04:34:25;;;;;;;20.90;5.80;;;7.70;99.90;;;;;;5024550;28;20084;-49
2023/12/23 04:36:50;;;;;;;17.50;7.03;;;7.70;99.90;;;;;;5028324;28;20018;-52
2023/12/23 04:39:16;;;;;;;16.30;5.95;;;7.70;99.90;;;;;;5027035;28;20022;-55
2023/12/23 04:41:47;;;;;;;11.98;6.00;;;7.60;99.90;;;;;;5031597;28;20525;-51
2023/12/23 04:44:13;;;;;;;10.25;4.88;;;7.70;99.90;;;;;;5024557;28;20038;-51
2023/12/23 04:46:40;;;;;;;19.13;6.00;;;7.70;99.90;;;;;;5019080;28;20243;-48
2023/12/23 04:49:05;;;;;;;12.63;5.53;;;7.70;99.90;;;;;;5023092;28;20125;-49
2023/12/23 04:51:31;;;;;;;12.35;4.80;;;7.70;99.90;;;;;;5019705;28;20030;-49
2023/12/23 04:53:57;;;;;;;24.27;5.85;;;7.70;99.90;;;;;;5026911;28;20025;-50
2023/12/23 04:56:22;;;;;;;11.57;5.35;;;7.70;99.90;;;;;;5029560;28;20028;-51
2023/12/23 04:58:48;;;;;;;15.18;5.18;;;7.70;99.90;;;;;;5024823;28;20499;-53
2023/12/23 05:01:14;;;;;;;9.80;4.40;;;7.70;99.90;;;;;;5020973;28;20030;-52
2023/12/23 05:03:40;;;;;;;24.00;5.47;;;7.70;99.90;;;;;;5023767;28;20037;-50
2023/12/23 05:06:06;;;;;;;11.30;3.78;;;7.70;99.90;;;;;;5021065;28;20033;-49
2023/12/23 05:08:32;;;;;;;9.68;4.22;;;7.70;99.90;;;;;;5016611;28;20034;-52
2023/12/23 05:10:58;;;;;;;15.73;3.70;;;7.70;99.90;;;;;;5025997;28;20036;-49
2023/12/23 05:13:24;;;;;;;16.02;4.13;;;7.70;99.90;;;;;;5029232;28;20563;-49
2023/12/23 05:15:50;;;;;;;9.63;3.72;;;7.70;99.90;;;;;;5023883;28;20108;-52
2023/12/23 05:18:16;;;;;;;8.95;3.60;;;7.70;99.90;;;;;;5017746;28;20017;-51
2023/12/23 05:20:42;;;;;;;11.15;4.07;;;7.60;99.90;;;;;;5023855;28;22319;-54
2023/12/23 05:23:07;;;;;;;17.48;3.17;;;7.70;99.90;;;;;;5028798;28;20048;-55
2023/12/23 05:25:33;;;;;;;9.65;3.38;;;7.70;99.90;;;;;;5024773;28;20040;-50
2023/12/23 05:27:59;;;;;;;10.93;3.10;;;7.60;99.90;;;;;;5023773;28;20044;-51
2023/12/23 05:30:25;;;;;;;9.95;3.00;;;7.70;99.90;;;;;;5024737;28;20021;-49
2023/12/23 05:32:51;;;;;;;9.80;3.80;;;7.70;99.90;;;;;;5027362;28;20049;-52
2023/12/23 05:35:16;;;;;;;13.18;2.40;;;7.60;99.90;;;;;;5021093;28;20500;-55
2023/12/23 05:37:42;;;;;;;10.90;3.30;;;7.70;99.90;;;;;;5020982;28;20025;-55
2023/12/23 05:40:09;;;;;;;18.00;3.72;;;7.60;99.90;;;;;;5027338;28;20028;-53
2023/12/23 05:42:34;;;;;;;10.00;3.15;;;7.70;99.90;;;;;;5025893;28;20029;-52
2023/12/23 05:45:00;;;;;;;14.77;3.50;;;7.70;99.90;;;;;;5024854;28;20319;-49
2023/12/23 05:47:27;;;;;;;8.90;3.20;;;7.70;99.90;;;;;;5023233;28;20034;-48
2023/12/23 05:49:52;;;;;;;12.63;3.25;;;7.70;99.90;;;;;;5027155;28;20025;-55
2023/12/23 05:52:18;;;;;;;6.60;2.75;;;7.70;99.90;;;;;;5027778;28;20036;-51
2023/12/23 05:54:44;;;;;;;13.38;2.83;;;7.70;99.90;;;;;;5026136;28;20025;-52
2023/12/23 05:57:09;;;;;;;7.95;2.15;;;7.70;99.90;;;;;;5014446;28;20036;-50
2023/12/23 05:59:35;;;;;;;9.73;2.72;;;7.70;99.90;;;;;;5020294;28;20029;-48
2023/12/23 06:02:00;;;;;;;11.13;3.20;;;7.70;99.90;;;;;;5028662;28;20033;-52
2023/12/23 06:04:27;;;;;;;6.07;1.85;;;7.70;99.90;;;;;;5028990;28;20075;-50
2023/12/23 06:06:52;;;;;;;3.85;2.05;;;7.70;99.90;;;;;;5026005;28;20036;-54
2023/12/23 06:09:18;;;;;;;12.45;2.47;;;7.80;99.90;;;;;;5026459;28;20081;-53
2023/12/23 06:11:43;;;;;;;11.45;2.35;;;7.80;99.90;;;;;;5023446;28;20113;-54
2023/12/23 06:14:09;;;;;;;11.20;2.47;;;7.80;99.90;;;;;;5024724;28;20037;-51
2023/12/23 06:16:39;;;;;;;13.70;2.80;;;7.80;99.90;;;;;;5016957;28;20022;-56
2023/12/23 06:19:05;;;;;;;9.25;2.63;;;7.80;99.90;;;;;;5027199;28;20026;-51
2023/12/23 06:21:31;;;;;;;17.98;4.25;;;7.70;99.90;;;;;;5024065;28;20119;-50
2023/12/23 06:23:57;;;;;;;6.25;3.28;;;7.80;99.90;;;;;;5025982;28;20034;-49
2023/12/23 06:26:22;;;;;;;11.35;3.03;;;7.80;99.90;;;;;;5021354;28;20025;-54
2023/12/23 06:28:48;;;;;;;11.05;2.65;;;7.80;99.90;;;;;;5017711;28;20057;-51
2023/12/23 06:31:14;;;;;;;9.75;2.83;;;7.80;99.90;;;;;;5019988;28;20063;-50
2023/12/23 06:33:39;;;;;;;12.60;2.47;;;7.70;99.90;;;;;;5024877;28;20128;-50
2023/12/23 06:36:08;;;;;;;11.25;3.28;;;7.80;99.90;;;;;;5028062;28;20447;-54
2023/12/23 06:38:34;;;;;;;7.70;2.63;;;7.80;99.90;;;;;;5025179;28;20026;-49
2023/12/23 06:40:59;;;;;;;8.48;2.72;;;7.80;99.90;;;;;;5021324;28;20034;-50
2023/12/23 06:43:25;;;;;;;13.20;2.42;;;7.70;99.90;;;;;;5019985;28;20476;-53
2023/12/23 06:45:50;;;;;;;12.55;3.10;;;7.80;99.90;;;;;;5028966;28;20072;-51
2023/12/23 06:48:16;;;;;;;15.57;3.28;;;7.80;99.90;;;;;;5027867;28;20033;-48
2023/12/23 06:50:42;;;;;;;13.95;2.67;;;7.80;99.90;;;;;;5024307;28;20033;-50
2023/12/23 06:53:08;;;;;;;9.85;3.28;;;7.80;99.90;;;;;;5019100;28;20033;-55
2023/12/23 06:55:34;;;;;;;7.80;2.70;;;7.80;99.90;;;;;;5017191;28;20080;-50
2023/12/23 06:58:00;;;;;;;11.75;3.10;;;7.80;99.90;;;;;;5015119;28;20018;-50
2023/12/23 07:00:26;;;;;;;4.93;2.15;;;7.80;99.90;;;;;;5027114;28;20022;-56
2023/12/23 07:02:52;;;;;;;7.72;3.05;;;7.80;99.90;;;;;;5027866;28;20034;-53
2023/12/23 07:05:18;;;;;;;6.72;2.90;;;7.80;99.90;;;;;;5025582;28;20037;-51
2023/12/23 07:07:44;;;;;;;10.07;3.03;;;7.80;99.90;;;;;;5018441;28;20026;-50
2023/12/23 07:10:10;;;;;;;8.95;3.05;;;7.80;99.90;;;;;;5027757;28;20495;-50
2023/12/23 07:12:36;;;;;;;6.40;2.40;;;7.80;99.90;;;;;;5025952;28;20029;-55
2023/12/23 07:15:06;;;;;;;12.13;3.80;;;7.80;99.90;;;;;;5023707;28;20026;-50
2023/12/23 07:17:32;;;;;;;8.48;3.45;;;7.80;99.90;;;;;;5026050;28;20034;-50
2023/12/23 07:19:57;;;;;;;7.55;3.83;;;7.80;99.90;;;;;;5015888;28;20550;-53
2023/12/23 07:22:23;;;;;;;7.22;2.92;;;7.80;99.90;;;;;;5026038;28;20029;-48
2023/12/23 07:24:48;;;;;;;4.75;2.63;;;7.80;99.90;;;;;;5022221;28;20095;-52
2023/12/23 07:27:14;;;;;;;5.18;2.33;;;7.80;99.90;;;;;;5021439;28;20065;-58
2023/12/23 07:29:40;;;;;;;6.57;2.67;;;7.80;99.90;;;;;;5024046;28;20056;-50
2023/12/23 07:32:06;;;;;;;5.85;2.75;;;7.80;99.90;;;;;;5032042;28;20032;-50
2023/12/23 07:34:32;;;;;;;9.77;3.45;;;7.80;99.90;;;;;;5028659;28;20583;-50
2023/12/23 07:36:57;;;;;;;10.02;3.40;;;7.80;99.90;;;;;;5029918;28;20050;-53
2023/12/23 07:39:23;;;;;;;11.48;3.45;;;7.80;99.90;;;;;;5031433;28;20399;-49
2023/12/23 07:41:48;;;;;;;11.93;3.63;;;7.90;99.90;;;;;;5029572;28;20026;-52
2023/12/23 07:44:14;;;;;;;10.32;3.03;;;7.80;99.90;;;;;;5026126;28;20495;-51
2023/12/23 07:46:40;;;;;;;12.48;3.85;;;7.80;99.90;;;;;;5029166;28;20029;-55
2023/12/23 07:49:05;;;;;;;12.25;3.88;;;7.80;99.90;;;;;;5026622;28;20088;-53
2023/12/23 07:51:31;;;;;;;16.63;3.60;;;7.90;99.90;;;;;;5025899;28;20083;-49
2023/12/23 07:53:56;;;;;;;8.23;2.90;;;7.90;99.90;;;;;;5016997;28;20021;-52
2023/12/23 07:56:24;;;;;;;11.88;3.78;;;7.80;99.90;;;;;;5018616;28;20103;-53
2023/12/23 07:58:50;;;;;;;9.40;4.25;;;7.80;99.90;;;;;;5022768;28;20041;-50
2023/12/23 08:01:15;;;;;;;8.07;3.15;;;7.90;99.90;;;;;;5026688;28;20033;-53
2023/12/23 08:03:41;;;;;;;11.18;4.03;;;7.80;99.90;;;;;;5026645;28;20037;-53
2023/12/23 08:06:06;;;;;;;5.18;3.28;;;7.80;99.90;;;;;;5023714;28;20129;-54
2023/12/23 08:08:32;;;;;;;5.78;2.67;;;7.90;99.90;;;;;;5022096;28;20415;-54
2023/12/23 08:10:58;;;;;;;8.73;3.28;;;7.80;99.90;;;;;;5023305;28;20040;-55
2023/12/23 08:13:23;;;;;;;11.05;3.75;;;7.90;99.90;;;;;;5019565;28;20104;-51
2023/12/23 08:15:49;;;;;;;9.35;3.63;;;7.90;99.90;;;;;;5029761;28;20069;-50
2023/12/23 08:18:17;;;;;;;11.23;3.70;;;7.90;99.90;;;;;;5023465;28;20058;-53
2023/12/23 08:20:43;;;;;;;11.70;4.03;;;7.90;99.90;;;;;;5031720;28;20030;-51
2023/12/23 08:23:09;;;;;;;8.93;3.70;;;7.90;99.90;;;;;;5025122;28;20030;-49
2023/12/23 08:25:34;;;;;;;10.30;3.50;;;7.90;99.90;;;;;;5027921;28;20506;-49
2023/12/23 08:28:00;;;;;;;6.18;3.28;;;7.90;99.90;;;;;;5022612;28;20100;-49
2023/12/23 08:30:26;;;;;;;8.68;3.95;;;7.90;99.90;;;;;;5026932;28;20033;-53
2023/12/23 08:32:51;;;;;;;8.05;3.63;;;7.90;99.90;;;;;;5030372;28;20075;-49
2023/12/23 08:35:17;;;;;;;9.30;3.63;;;7.90;99.90;;;;;;5024890;28;20033;-49
2023/12/23 08:37:42;;;;;;;13.45;4.50;;;7.90;99.90;;;;;;5028712;28;20484;-52
2023/12/23 08:40:10;;;;;;;5.93;3.53;;;8.00;99.90;;;;;;5026586;28;20022;-54
2023/12/23 08:42:36;;;;;;;16.25;5.10;;;8.00;99.90;;;;;;5022837;28;20026;-51
2023/12/23 08:45:01;;;;;;;12.75;4.43;;;8.00;99.90;;;;;;5029353;28;20106;-50
2023/12/23 08:47:27;;;;;;;13.40;4.35;;;8.00;99.90;;;;;;5025074;28;20467;-50
2023/12/23 08:49:53;;;;;;;15.38;4.72;;;8.00;99.90;;;;;;5021824;28;20404;-53
2023/12/23 08:52:18;;;;;;;14.77;3.63;;;8.00;99.90;;;;;;5031220;28;20104;-54
2023/12/23 08:54:44;;;;;;;8.40;4.32;;;8.00;99.90;;;;;;5017872;28;20105;-53
2023/12/23 08:57:09;;;;;;;14.75;4.18;;;8.00;99.90;;;;;;5024189;28;20057;-52
2023/12/23 08:59:36;;;;;;;13.25;5.78;;;8.00;99.90;;;;;;5019472;28;20092;-51
2023/12/23 09:02:03;;;;;;;14.18;4.78;;;8.00;99.90;;;;;;5026815;28;20026;-49
2023/12/23 09:04:29;;;;;;;18.17;4.40;;;8.10;99.90;;;;;;5028505;28;20473;-56
2023/12/23 09:06:55;;;;;;;8.75;3.65;;;8.10;99.90;;;;;;5025785;28;20022;-57
2023/12/23 09:09:21;;;;;;;14.45;4.28;;;8.10;99.90;;;;;;5021511;28;20139;-53
2023/12/23 09:11:47;;;;;;;13.15;4.57;;;8.10;99.90;;;;;;5021166;28;20511;-49
2023/12/23 09:14:14;;;;;;;10.98;4.35;;;8.10;99.90;;;;;;5019145;28;20033;-52
2023/12/23 09:16:40;;;;;;;16.15;3.78;;;8.10;99.90;;;;;;5024774;28;20029;-49
2023/12/23 09:19:06;;;;;;;18.73;5.35;;;8.10;99.90;;;;;;5021081;28;20045;-51
2023/12/23 09:21:32;;;;;;;14.13;4.00;;;8.20;99.90;;;;;;5020805;28;20052;-51
2023/12/23 09:23:58;;;;;;;14.80;3.88;;;8.20;99.90;;;;;;5018383;28;20468;-54
2023/12/23 09:26:24;;;;;;;16.80;4.97;;;8.20;99.90;;;;;;5021035;28;20587;-53
2023/12/23 09:28:51;;;;;;;20.10;4.82;;;8.20;99.90;;;;;;5020340;28;20087;-53
2023/12/23 09:31:16;;;;;;;17.00;4.30;;;8.20;99.90;;;;;;5024089;28;20073;-52
2023/12/23 09:33:42;;;;;;;10.02;4.38;;;8.20;99.90;;;;;;5019289;28;20034;-51
2023/12/23 09:36:07;;;;;;;12.57;3.03;;;8.30;99.90;;;;;;5015970;28;20125;-55
2023/12/23 09:38:33;;;;;;;15.07;3.75;;;8.30;99.90;;;;;;5018364;28;20499;-50
2023/12/23 09:40:59;;;;;;;16.33;3.45;;;8.30;99.90;;;;;;5019966;28;20022;-52
2023/12/23 09:43:25;;;;;;;11.30;3.03;;;8.40;99.90;;;;;;5021468;28;20122;-49
2023/12/23 09:45:53;;;;;;;8.60;3.70;;;8.30;99.90;;;;;;5026057;28;21011;-49
2023/12/23 09:48:19;;;;;;;18.95;2.88;;;8.40;99.90;;;;;;5024012;28;20033;-52
2023/12/23 09:50:46;;;;;;;19.17;3.95;;;8.40;99.90;;;;;;5027181;28;20037;-49
2023/12/23 09:53:13;;;;;;;10.63;3.10;;;8.40;99.90;;;;;;5023462;28;20061;-54
2023/12/23 09:55:42;;;;;;;21.73;3.20;;;8.40;99.90;;;;;;5018951;28;20058;-53
2023/12/23 09:58:07;;;;;;;9.13;3.50;;;8.40;99.90;;;;;;5022986;28;20029;-53
2023/12/23 10:00:33;;;;;;;11.48;2.55;;;8.40;99.90;;;;;;5024288;28;20164;-49
2023/12/23 10:02:59;;;;;;;10.98;3.28;;;8.40;99.90;;;;;;5013746;28;20026;-48
2023/12/23 10:05:29;;;;;;;13.55;3.47;;;8.40;99.90;;;;;;5020213;28;20075;-50
2023/12/23 10:07:58;;;;;;;13.07;3.15;;;8.50;99.90;;;;;;5017221;28;20025;-50
2023/12/23 10:10:25;;;;;;;9.40;2.92;;;8.50;99.90;;;;;;5021034;28;20108;-51
2023/12/23 10:12:51;;;;;;;13.48;4.30;;;8.50;99.90;;;;;;5025778;28;20038;-51
2023/12/23 10:15:16;;;;;;;13.43;3.45;;;8.50;99.90;;;;;;5026034;28;20092;-52
2023/12/23 10:17:42;;;;;;;10.95;2.70;;;8.50;99.90;;;;;;5024320;28;20044;-48
2023/12/23 10:20:11;;;;;;;10.20;2.58;;;8.50;99.90;;;;;;5024094;28;20030;-53
2023/12/23 10:22:37;;;;;;;11.00;2.53;;;8.50;99.90;;;;;;5023497;28;20508;-54
2023/12/23 10:25:03;;;;;;;7.40;2.70;;;8.50;99.90;;;;;;5023265;28;20065;-56
2023/12/23 10:27:32;;;;;;;11.43;2.55;;;8.50;99.90;;;;;;5019794;28;20394;-51
2023/12/23 10:30:02;;;;;;;12.82;2.67;;;8.50;99.90;;;;;;5019085;28;20041;-52
2023/12/23 10:32:30;;;;;;;8.02;2.78;;;8.50;99.90;;;;;;5020134;28;20041;-58
2023/12/23 10:35:00;;;;;;;6.30;2.10;;;8.50;99.90;;;;;;5017351;28;20029;-50
2023/12/23 10:37:26;;;;;;;11.80;2.35;;;8.50;99.90;;;;;;5027817;28;20021;-52
2023/12/23 10:39:58;;;;;;;6.45;2.72;;;8.50;99.90;;;;;;5026435;28;20435;-49
2023/12/23 10:42:24;;;;;;;7.75;2.47;;;8.60;99.90;;;;;;5018770;28;20022;-50
2023/12/23 10:44:51;;;;;;;7.28;2.58;;;8.50;99.90;;;;;;5017473;28;20042;-49
2023/12/23 10:47:17;;;;;;;15.13;2.92;;;8.50;99.90;;;;;;5013103;28;20025;-51
2023/12/23 10:49:46;;;;;;;8.20;2.33;;;8.40;99.90;;;;;;5021887;28;20607;-53
2023/12/23 10:52:13;;;;;;;9.77;3.22;;;8.40;99.90;;;;;;5026118;28;20029;-54
2023/12/23 10:54:39;;;;;;;11.85;3.50;;;8.40;99.90;;;;;;5023685;28;20025;-53
2023/12/23 10:57:05;;;;;;;10.23;2.92;;;8.40;99.90;;;;;;5014750;28;20033;-54
2023/12/23 10:59:31;;;;;;;9.77;2.75;;;8.40;99.90;;;;;;5019609;28;20025;-52
2023/12/23 11:01:57;;;;;;;5.75;2.70;;;8.40;99.90;;;;;;5013116;28;20030;-53
2023/12/23 11:04:27;;;;;;;8.38;2.20;;;8.40;99.90;;;;;;5028104;28;20048;-52
2023/12/23 11:06:55;;;;;;;7.32;2.50;;;8.40;99.90;;;;;;5031117;28;20044;-56
2023/12/23 11:09:22;;;;;;;8.25;2.50;;;8.40;99.90;;;;;;5029352;28;20033;-52
2023/12/23 11:11:48;;;;;;;5.88;2.40;;;8.40;99.90;;;;;;5021704;28;20724;-52
2023/12/23 11:14:14;;;;;;;9.73;2.58;;;8.40;99.90;;;;;;5021687;28;20057;-53
2023/12/23 11:16:41;;;;;;;4.65;1.80;;;8.40;99.90;;;;;;5028921;28;20033;-49
2023/12/23 11:19:07;;;;;;;6.25;2.08;;;8.40;99.90;;;;;;5028731;28;20045;-53
2023/12/23 11:21:35;;;;;;;7.60;2.50;;;8.30;99.90;;;;;;5031521;28;20407;-53
2023/12/23 11:24:00;;;;;;;8.07;2.47;;;8.40;99.90;;;;;;5032523;28;20058;-52
2023/12/23 11:26:37;;;;;;;12.02;2.88;;;8.30;99.90;;;;;;5029403;28;20041;-52
2023/12/23 11:29:18;;;;;;;11.30;3.00;;;8.40;99.90;;;;;;5027819;28;20617;-52
2023/12/23 11:31:44;;;;;;;10.02;2.97;;;8.40;99.90;;;;;;5023428;28;20029;-50
2023/12/23 11:34:14;;;;;;;9.63;3.35;;;8.40;99.90;;;;;;5023039;28;20099;-57
2023/12/23 11:36:42;;;;;;;7.57;3.15;;;8.40;99.90;;;;;;5025927;28;20397;-58
2023/12/23 11:39:11;;;;;;;6.70;2.20;;;8.40;99.90;;;;;;5025683;28;20034;-56
2023/12/23 11:41:39;;;;;;;6.68;1.77;;;8.40;99.90;;;;;;5026387;28;20032;-49
2023/12/23 11:44:06;;;;;;;7.88;2.20;;;8.40;99.90;;;;;;5020473;28;20029;-51
2023/12/23 11:46:33;;;;;;;11.30;2.45;;;8.40;99.90;;;;;;5022584;28;20079;-52
2023/12/23 11:49:00;;;;;;;9.35;2.50;;;8.40;99.90;;;;;;5016070;28;20025;-53
2023/12/23 11:51:26;;;;;;;10.50;2.47;;;8.40;99.90;;;;;;5019835;28;20337;-49
2023/12/23 11:53:53;;;;;;;6.93;2.40;;;8.40;99.90;;;;;;5021430;28;20033;-53
2023/12/23 11:56:19;;;;;;;4.53;2.03;;;8.40;99.90;;;;;;5020746;28;20490;-53
2023/12/23 11:58:45;;;;;;;5.43;2.03;;;8.40;99.90;;;;;;5022891;28;20062;-54
2023/12/23 12:01:11;;;;;;;12.32;3.17;;;8.40;99.90;;;;;;5026216;28;20578;-56
2023/12/23 12:03:36;;;;;;;12.02;3.22;;;8.50;99.90;;;;;;5025861;28;20034;-60
2023/12/23 12:06:02;;;;;;;11.50;3.38;;;8.50;99.90;;;;;;5027401;28;20032;-53
2023/12/23 12:08:28;;;;;;;11.25;2.75;;;8.50;99.90;;;;;;5024561;28;20037;-51
2023/12/23 12:10:58;;;;;;;7.30;3.15;;;8.60;99.90;;;;;;5019026;28;20044;-51
2023/12/23 12:13:40;;;;;;;19.50;3.58;;;8.50;99.90;;;;;;5024252;28;20041;-52
2023/12/23 12:16:05;;;;;;;4.32;1.73;;;8.50;99.90;;;;;;5023329;28;20112;-54
2023/12/23 12:18:31;;;;;;;7.03;2.25;;;8.50;99.90;;;;;;5024109;28;20137;-49
2023/12/23 12:20:57;;;;;;;10.80;2.75;;;8.60;99.90;;;;;;5023012;28;20065;-49
2023/12/23 12:23:23;;;;;;;5.90;2.40;;;8.50;99.90;;;;;;5021186;28;20022;-49
2023/12/23 12:25:49;;;;;;;12.57;2.65;;;8.50;99.90;;;;;;5023045;28;20082;-49
2023/12/23 12:28:15;;;;;;;9.10;2.22;;;8.50;99.90;;;;;;5018957;28;20498;-49
2023/12/23 12:30:43;;;;;;;5.40;2.15;;;8.60;99.90;;;;;;5022465;28;20029;-56
2023/12/23 12:33:09;;;;;;;7.55;1.65;;;8.60;99.90;;;;;;5017530;28;20492;-52
2023/12/23 12:35:36;;;;;;;15.95;2.90;;;8.60;99.90;;;;;;5025501;28;20116;-57
2023/12/23 12:38:02;;;;;;;9.35;2.35;;;8.60;99.90;;;;;;5023440;28;20053;-53
2023/12/23 12:40:27;;;;;;;8.02;2.13;;;8.60;99.90;;;;;;5026128;28;20636;-56
2023/12/23 12:42:54;;;;;;;6.60;1.67;;;8.60;99.90;;;;;;5023918;28;20026;-53
2023/12/23 12:45:23;;;;;;;10.48;1.95;;;8.70;99.90;;;;;;5023122;28;20068;-55
2023/12/23 12:47:50;;;;;;;9.88;2.13;;;8.70;99.90;;;;;;5027658;28;20503;-54